createdAt,value
2018-01-15T00:01:51.264Z,69.90
2018-01-15T00:04:18.764Z,69.90
2018-01-15T00:06:46.253Z,69.50
2018-01-15T00:09:13.742Z,69.60
2018-01-15T00:11:41.226Z,69.50
2018-01-15T00:14:09.467Z,70.00
2018-01-15T00:16:36.941Z,70.00
2018-01-15T00:19:04.462Z,70.00
2018-01-15T00:21:31.949Z,70.20
2018-01-15T00:23:59.425Z,70.20
2018-01-15T00:26:27.677Z,70.40
2018-01-15T00:28:55.156Z,70.30
2018-01-15T00:31:23.426Z,70.50
2018-01-15T00:33:51.654Z,70.50
2018-01-15T00:36:19.130Z,70.40
2018-01-15T00:38:46.620Z,70.60
2018-01-15T00:41:14.866Z,70.70
2018-01-15T00:43:42.338Z,70.70
2018-01-15T00:46:10.594Z,70.70
2018-01-15T00:48:38.057Z,70.70
2018-01-15T00:51:05.554Z,70.80
2018-01-15T00:53:33.038Z,70.60
2018-01-15T00:56:00.553Z,70.60
2018-01-15T00:58:28.810Z,70.30
2018-01-15T01:00:57.045Z,70.00
2018-01-15T01:03:24.502Z,70.00
2018-01-15T01:05:52.000Z,69.90
2018-01-15T01:08:19.485Z,69.60
2018-01-15T01:10:47.737Z,69.80
2018-01-15T01:13:15.199Z,69.70
2018-01-15T01:15:42.697Z,69.70
2018-01-15T01:18:10.162Z,69.50
2018-01-15T01:20:37.641Z,69.50
2018-01-15T01:23:05.110Z,69.40
2018-01-15T01:25:34.034Z,69.50
2018-01-15T01:28:02.276Z,69.80
2018-01-15T01:30:29.748Z,69.80
2018-01-15T01:32:58.011Z,70.80
2018-01-15T01:35:25.475Z,70.40
2018-01-15T01:37:53.731Z,71.40
2018-01-15T01:40:21.207Z,71.40
2018-01-15T01:42:48.669Z,71.60
2018-01-15T01:45:16.953Z,71.60
2018-01-15T01:47:45.199Z,71.60
2018-01-15T01:50:12.677Z,71.50
2018-01-15T01:52:40.933Z,71.30
2018-01-15T01:55:08.405Z,71.30
2018-01-15T01:57:36.659Z,71.60
2018-01-15T02:00:04.156Z,71.60
2018-01-15T02:02:31.644Z,71.70
2018-01-15T02:04:59.109Z,71.80
2018-01-15T02:07:26.601Z,71.80
2018-01-15T02:09:54.873Z,72.60
2018-01-15T02:12:22.342Z,72.60
2018-01-15T02:14:50.588Z,73.30
2018-01-15T02:17:18.079Z,72.50
2018-01-15T02:19:45.539Z,72.40
2018-01-15T02:22:13.025Z,72.20
2018-01-15T02:24:40.496Z,71.80
2018-01-15T02:27:07.976Z,71.50
2018-01-15T02:29:35.455Z,71.40
2018-01-15T02:32:02.922Z,71.20
2018-01-15T02:34:30.424Z,71.10
2018-01-15T02:36:57.898Z,70.90
2018-01-15T02:39:25.382Z,70.40
2018-01-15T02:41:52.851Z,70.30
2018-01-15T02:44:20.326Z,70.10
2018-01-15T02:46:47.788Z,70.10
2018-01-15T02:49:15.278Z,69.90
2018-01-15T02:51:42.743Z,69.90
2018-01-15T02:54:10.218Z,69.80
2018-01-15T02:56:37.750Z,69.90
2018-01-15T02:59:05.227Z,69.80
2018-01-15T03:01:32.758Z,69.70
2018-01-15T03:04:00.241Z,69.60
2018-01-15T03:06:27.750Z,69.10
2018-01-15T03:08:55.209Z,69.20
2018-01-15T03:11:23.453Z,70.10
2018-01-15T03:13:50.931Z,69.40
2018-01-15T03:16:18.422Z,69.10
2018-01-15T03:18:45.878Z,69.10
2018-01-15T03:21:14.333Z,69.50
2018-01-15T03:23:41.794Z,69.40
2018-01-15T03:26:09.266Z,69.50
2018-01-15T03:28:36.730Z,69.10
2018-01-15T03:31:05.001Z,69.30
2018-01-15T03:33:32.460Z,69.30
2018-01-15T03:35:59.955Z,69.30
2018-01-15T03:38:27.426Z,69.10
2018-01-15T03:40:54.912Z,68.80
2018-01-15T03:43:22.370Z,68.90
2018-01-15T03:45:50.599Z,69.00
2018-01-15T03:48:18.079Z,69.00
2018-01-15T03:50:45.547Z,68.80
2018-01-15T03:53:13.025Z,68.60
2018-01-15T03:55:41.275Z,68.70
2018-01-15T03:58:08.754Z,68.70
2018-01-15T04:00:36.242Z,68.70
2018-01-15T04:03:03.706Z,68.80
2018-01-15T04:05:31.158Z,68.50
2018-01-15T04:07:58.648Z,68.90
2018-01-15T04:10:26.885Z,68.70
2018-01-15T04:12:54.381Z,68.70
2018-01-15T04:15:21.852Z,68.70
2018-01-15T04:17:50.083Z,69.30
2018-01-15T04:20:17.570Z,68.90
2018-01-15T04:22:45.039Z,68.80
2018-01-15T04:25:13.282Z,68.70
2018-01-15T04:27:40.743Z,68.70
2018-01-15T04:30:08.221Z,68.80
2018-01-15T04:32:35.687Z,68.90
2018-01-15T04:35:03.950Z,69.20
2018-01-15T04:37:32.193Z,69.00
2018-01-15T04:39:59.653Z,69.00
2018-01-15T04:42:27.138Z,69.00
2018-01-15T04:44:55.394Z,69.40
2018-01-15T04:47:22.861Z,69.00
2018-01-15T04:49:50.359Z,69.10
2018-01-15T04:52:17.936Z,69.10
2018-01-15T04:54:45.418Z,68.80
2018-01-15T04:57:13.136Z,69.20
2018-01-15T04:59:40.611Z,69.00
2018-01-15T05:02:08.085Z,69.30
2018-01-15T05:04:37.056Z,69.20
2018-01-15T05:07:04.542Z,69.20
2018-01-15T05:09:32.008Z,69.00
2018-01-15T05:12:00.993Z,69.10
2018-01-15T05:14:28.457Z,69.10
2018-01-15T05:16:55.933Z,69.50
2018-01-15T05:19:24.162Z,69.20
2018-01-15T05:21:51.732Z,69.20
2018-01-15T05:24:19.226Z,69.00
2018-01-15T05:26:46.706Z,69.40
2018-01-15T05:29:14.195Z,69.10
2018-01-15T05:31:41.657Z,69.40
2018-01-15T05:34:09.142Z,69.60
2018-01-15T05:36:37.362Z,70.00
2018-01-15T05:39:04.846Z,70.00
2018-01-15T05:41:33.815Z,70.40
2018-01-15T05:44:01.273Z,70.40
2018-01-15T05:46:28.753Z,71.10
2018-01-15T05:48:56.213Z,71.60
2018-01-15T05:51:24.461Z,72.00
2018-01-15T05:53:51.960Z,71.90
2018-01-15T05:56:19.415Z,72.30
2018-01-15T05:58:47.655Z,73.30
2018-01-15T06:01:15.239Z,73.20
2018-01-15T06:03:43.466Z,73.60
2018-01-15T06:06:10.953Z,73.60
2018-01-15T06:08:38.561Z,73.80
2018-01-15T06:11:06.066Z,74.00
2018-01-15T06:13:33.536Z,74.30
2018-01-15T06:16:01.785Z,74.80
2018-01-15T06:18:29.271Z,74.80
2018-01-15T06:20:57.508Z,75.30
2018-01-15T06:23:24.970Z,75.20
2018-01-15T06:25:52.462Z,75.40
2018-01-15T06:28:20.713Z,75.70
2018-01-15T06:30:48.205Z,75.70
2018-01-15T06:33:16.438Z,76.00
2018-01-15T06:35:44.700Z,76.20
2018-01-15T06:38:12.190Z,76.20
2018-01-15T06:40:40.418Z,76.20
2018-01-15T06:43:07.906Z,76.10
2018-01-15T06:45:35.405Z,76.10
2018-01-15T06:48:02.899Z,76.20
2018-01-15T06:50:30.365Z,76.10
2018-01-15T06:52:57.845Z,76.40
2018-01-15T06:55:25.320Z,76.40
2018-01-15T06:57:52.786Z,76.20
2018-01-15T07:00:20.275Z,77.10
2018-01-15T07:02:47.741Z,76.70
2018-01-15T07:05:15.223Z,76.70
2018-01-15T07:07:43.459Z,76.90
2018-01-15T07:10:10.996Z,76.90
2018-01-15T07:12:38.482Z,76.90
2018-01-15T07:15:05.962Z,76.90
2018-01-15T07:17:33.438Z,77.00
2018-01-15T07:20:01.693Z,77.00
2018-01-15T07:22:29.973Z,77.00
2018-01-15T07:24:57.455Z,76.90
2018-01-15T07:27:24.952Z,77.10
2018-01-15T07:29:52.422Z,77.20
2018-01-15T07:32:20.045Z,77.10
2018-01-15T07:34:47.526Z,76.90
2018-01-15T07:37:15.077Z,77.00
2018-01-15T07:39:42.577Z,77.00
2018-01-15T07:42:10.824Z,77.30
2018-01-15T07:44:38.298Z,77.30
2018-01-15T07:47:05.763Z,77.20
2018-01-15T07:49:34.007Z,77.50
2018-01-15T07:52:02.263Z,77.50
2018-01-15T07:54:29.725Z,77.50
2018-01-15T07:56:57.235Z,77.50
2018-01-15T07:59:25.468Z,77.20
2018-01-15T08:01:52.940Z,77.20
2018-01-15T08:04:20.494Z,77.00
2018-01-15T08:06:47.999Z,76.60
2018-01-15T08:09:16.222Z,75.70
2018-01-15T08:11:43.760Z,75.70
2018-01-15T08:14:11.235Z,75.50
2018-01-15T08:16:38.702Z,75.20
2018-01-15T08:19:06.963Z,75.20
2018-01-15T08:21:34.428Z,75.20
2018-01-15T08:24:01.924Z,74.90
2018-01-15T08:26:29.390Z,74.80
2018-01-15T08:28:56.858Z,74.90
2018-01-15T08:31:24.338Z,75.10
2018-01-15T08:33:51.822Z,75.20
2018-01-15T08:36:20.078Z,75.30
2018-01-15T08:38:48.341Z,76.10
2018-01-15T08:41:15.863Z,75.40
2018-01-15T08:43:43.352Z,75.30
2018-01-15T08:46:10.834Z,75.50
2018-01-15T08:48:39.075Z,75.40
2018-01-15T08:51:06.574Z,75.30
2018-01-15T08:53:34.827Z,75.10
2018-01-15T08:56:02.311Z,75.10
2018-01-15T08:58:29.773Z,74.80
2018-01-15T09:00:57.265Z,75.00
2018-01-15T09:03:24.726Z,75.00
2018-01-15T09:05:52.204Z,74.80
2018-01-15T09:08:19.676Z,74.80
2018-01-15T09:10:47.965Z,74.40
2018-01-15T09:13:16.210Z,74.00
2018-01-15T09:15:43.694Z,74.10
2018-01-15T09:18:11.159Z,74.50
2018-01-15T09:20:38.666Z,73.60
2018-01-15T09:23:06.151Z,73.20
2018-01-15T09:25:34.381Z,73.00
2018-01-15T09:28:01.856Z,73.00
2018-01-15T09:30:29.344Z,72.20
2018-01-15T09:32:57.575Z,72.50
2018-01-15T09:35:25.039Z,72.50
2018-01-15T09:37:53.371Z,72.20
2018-01-15T09:40:21.558Z,71.80
2018-01-15T09:42:49.132Z,71.70
2018-01-15T09:45:16.632Z,71.60
2018-01-15T09:47:44.868Z,69.90
2018-01-15T09:50:12.353Z,70.00
2018-01-15T09:52:40.626Z,68.60
2018-01-15T09:55:08.188Z,68.10
2018-01-15T09:57:36.493Z,65.70
2018-01-15T10:00:04.058Z,65.70
2018-01-15T10:02:31.674Z,65.70
2018-01-15T10:04:59.195Z,65.80
2018-01-15T10:07:26.678Z,66.60
2018-01-15T10:09:54.153Z,66.40
2018-01-15T10:12:22.394Z,66.50
2018-01-15T10:14:49.903Z,66.40
2018-01-15T10:17:17.422Z,65.40
2018-01-15T10:19:44.894Z,63.90
2018-01-15T10:22:13.148Z,62.30
2018-01-15T10:24:40.634Z,62.30
2018-01-15T10:27:08.895Z,64.50
2018-01-15T10:29:37.146Z,65.10
2018-01-15T10:32:04.621Z,64.40
2018-01-15T10:34:32.119Z,64.90
2018-01-15T10:36:59.599Z,65.70
2018-01-15T10:39:27.098Z,65.80
2018-01-15T10:41:55.332Z,66.50
2018-01-15T10:44:22.829Z,66.50
2018-01-15T10:46:51.063Z,66.60
2018-01-15T10:49:18.582Z,66.60
2018-01-15T10:51:46.068Z,66.70
2018-01-15T10:54:13.539Z,67.40
2018-01-15T10:56:42.642Z,68.00
2018-01-15T10:59:10.106Z,68.10
2018-01-15T11:01:37.594Z,68.00
2018-01-15T11:04:05.073Z,68.80
2018-01-15T11:06:32.595Z,68.90
2018-01-15T11:09:00.834Z,70.10
2018-01-15T11:11:28.705Z,70.00
2018-01-15T11:13:56.279Z,70.50
2018-01-15T11:16:23.914Z,70.70
2018-01-15T11:18:51.676Z,70.90
2018-01-15T11:21:19.519Z,70.10
2018-01-15T11:23:47.014Z,69.80
2018-01-15T11:26:14.490Z,69.50
2018-01-15T11:28:42.766Z,69.80
2018-01-15T11:31:11.012Z,69.80
2018-01-15T11:33:38.516Z,69.80
2018-01-15T11:36:05.968Z,70.40
2018-01-15T11:38:33.524Z,70.50
2018-01-15T11:41:00.998Z,70.50
2018-01-15T11:43:28.488Z,70.60
2018-01-15T11:45:55.949Z,71.10
2018-01-15T11:48:24.215Z,71.40
2018-01-15T11:50:51.672Z,71.40
2018-01-15T11:53:19.203Z,71.50
2018-01-15T11:55:46.686Z,72.00
2018-01-15T11:58:14.182Z,72.10
2018-01-15T12:00:42.433Z,72.70
2018-01-15T12:03:09.976Z,72.70
2018-01-15T12:05:37.503Z,72.90
2018-01-15T12:08:04.963Z,72.80
2018-01-15T12:10:32.467Z,73.10
2018-01-15T12:12:59.945Z,73.00
2018-01-15T12:15:28.204Z,73.30
2018-01-15T12:17:56.420Z,73.70
2018-01-15T12:20:23.891Z,73.70
2018-01-15T12:22:51.367Z,74.20
2018-01-15T12:25:18.848Z,74.30
2018-01-15T12:27:47.095Z,75.80
2018-01-15T12:30:14.578Z,75.80
2018-01-15T12:32:42.830Z,76.70
2018-01-15T12:35:10.294Z,76.70
2018-01-15T12:37:37.917Z,78.00
2018-01-15T12:40:05.402Z,77.70
2018-01-15T12:42:32.893Z,78.00
2018-01-15T12:45:00.380Z,78.60
2018-01-15T12:47:27.902Z,79.00
2018-01-15T12:49:56.141Z,78.20
2018-01-15T12:52:23.693Z,78.20
2018-01-15T12:54:51.159Z,78.90
2018-01-15T12:57:18.640Z,78.90
2018-01-15T12:59:46.913Z,78.90
2018-01-15T13:02:14.392Z,78.90
2018-01-15T13:04:41.873Z,78.70
2018-01-15T13:10:12.078Z,78.80
2018-01-15T13:12:39.555Z,80.10
2018-01-15T13:15:07.038Z,80.00
2018-01-15T13:17:34.494Z,79.00
2018-01-15T13:20:01.966Z,80.30
2018-01-15T13:22:29.454Z,80.40
2018-01-15T13:24:56.945Z,79.80
2018-01-15T13:27:24.426Z,79.80
2018-01-15T13:29:51.906Z,82.50
2018-01-15T13:32:20.138Z,82.60
2018-01-15T13:34:47.627Z,82.50
2018-01-15T13:37:15.901Z,82.90
2018-01-15T13:39:43.392Z,82.80
2018-01-15T13:42:10.865Z,82.90
2018-01-15T13:44:38.482Z,83.20
2018-01-15T13:47:06.032Z,83.70
2018-01-15T13:49:34.325Z,85.80
2018-01-15T13:52:02.602Z,86.40
2018-01-15T13:54:30.161Z,86.20
2018-01-15T13:56:58.403Z,86.40
2018-01-15T13:59:25.964Z,86.40
2018-01-15T14:01:53.626Z,86.20
2018-01-15T14:04:21.128Z,87.00
2018-01-15T14:06:48.616Z,88.60
2018-01-15T14:09:16.078Z,89.30
2018-01-15T14:11:43.546Z,89.30
2018-01-15T14:14:11.037Z,90.00
2018-01-15T14:16:38.509Z,88.70
2018-01-15T14:19:05.969Z,89.90
2018-01-15T14:21:33.442Z,89.60
2018-01-15T14:24:00.959Z,90.20
2018-01-15T14:26:29.184Z,89.60
2018-01-15T14:28:56.740Z,89.60
2018-01-15T14:31:24.346Z,89.50
2018-01-15T14:33:52.754Z,89.10
2018-01-15T14:36:20.227Z,89.00
2018-01-15T14:38:47.731Z,90.00
2018-01-15T14:41:15.230Z,89.60
2018-01-15T14:43:42.726Z,90.20
2018-01-15T14:46:10.216Z,90.00
2018-01-15T14:48:37.706Z,90.30
2018-01-15T14:51:05.208Z,90.20
2018-01-15T14:53:33.612Z,91.00
2018-01-15T14:56:01.126Z,91.00
2018-01-15T14:58:28.608Z,91.00
2018-01-15T15:00:56.905Z,91.30
2018-01-15T15:03:24.403Z,91.30
2018-01-15T15:05:52.655Z,91.70
2018-01-15T15:08:20.156Z,91.70
2018-01-15T15:10:48.410Z,92.10
2018-01-15T15:13:15.912Z,92.10
2018-01-15T15:15:43.425Z,91.60
2018-01-15T15:18:10.846Z,92.00
2018-01-15T15:20:38.346Z,92.10
2018-01-15T15:23:05.836Z,92.30
2018-01-15T15:25:33.313Z,92.30
2018-01-15T15:28:00.848Z,92.10
2018-01-15T15:30:28.315Z,91.90
2018-01-15T15:32:55.803Z,92.20
2018-01-15T15:35:23.260Z,92.20
2018-01-15T15:37:50.761Z,92.10
2018-01-15T15:40:18.226Z,92.20
2018-01-15T15:42:45.713Z,92.10
2018-01-15T15:45:13.173Z,91.90
2018-01-15T15:47:40.694Z,91.90
2018-01-15T15:50:08.331Z,91.90
2018-01-15T15:52:35.806Z,92.00
2018-01-15T15:55:04.094Z,91.70
2018-01-15T15:57:31.628Z,91.70
2018-01-15T15:59:59.862Z,91.70
2018-01-15T16:02:27.341Z,91.60
2018-01-15T16:04:54.839Z,92.00
2018-01-15T16:07:22.319Z,91.90
2018-01-15T16:09:49.827Z,91.90
2018-01-15T16:12:17.303Z,91.70
2018-01-15T16:14:44.822Z,91.50
2018-01-15T16:17:12.295Z,91.30
2018-01-15T16:19:40.677Z,91.20
2018-01-15T16:22:20.932Z,91.20
2018-01-15T16:24:48.424Z,91.20
2018-01-15T16:27:15.890Z,91.30
2018-01-15T16:29:43.545Z,90.90
2018-01-15T16:32:11.012Z,91.30
2018-01-15T16:34:38.575Z,91.40
2018-01-15T16:37:06.172Z,91.40
2018-01-15T16:39:33.657Z,91.60
2018-01-15T16:42:01.110Z,91.80
2018-01-15T16:44:28.610Z,92.00
2018-01-15T16:46:56.305Z,92.10
2018-01-15T16:49:24.541Z,92.30
2018-01-15T16:51:52.026Z,92.30
2018-01-15T16:54:20.278Z,92.60
2018-01-15T16:56:47.763Z,92.50
2018-01-15T16:59:16.013Z,92.50
2018-01-15T17:01:43.479Z,92.50
2018-01-15T17:04:11.713Z,92.80
2018-01-15T17:06:39.191Z,92.80
2018-01-15T17:09:06.728Z,92.80
2018-01-15T17:11:34.276Z,92.60
2018-01-15T17:14:01.768Z,92.70
2018-01-15T17:16:29.246Z,92.50
2018-01-15T17:18:57.479Z,92.80
2018-01-15T17:21:24.983Z,93.00
2018-01-15T17:23:53.208Z,92.90
2018-01-15T17:26:20.674Z,92.90
2018-01-15T17:28:48.204Z,93.10
2018-01-15T17:31:15.692Z,92.90
2018-01-15T17:33:43.182Z,93.00
2018-01-15T17:36:11.410Z,93.00
2018-01-15T17:38:38.934Z,93.00
2018-01-15T17:41:06.420Z,93.30
2018-01-15T17:43:33.889Z,93.30
2018-01-15T17:46:01.628Z,93.30
2018-01-15T17:48:29.120Z,93.60
2018-01-15T17:50:56.617Z,93.20
2018-01-15T17:53:24.108Z,93.40
2018-01-15T17:55:51.614Z,93.20
2018-01-15T17:58:19.081Z,93.20
2018-01-15T18:00:46.549Z,93.50
2018-01-15T18:03:14.051Z,93.60
2018-01-15T18:05:41.517Z,93.70
2018-01-15T18:08:09.014Z,93.70
2018-01-15T18:10:36.531Z,93.70
2018-01-15T18:13:04.127Z,93.60
2018-01-15T18:15:31.626Z,93.80
2018-01-15T18:17:59.096Z,93.90
2018-01-15T18:20:26.695Z,93.60
2018-01-15T18:22:54.156Z,94.20
2018-01-15T18:25:21.647Z,94.00
2018-01-15T18:27:49.113Z,94.10
2018-01-15T18:30:16.607Z,94.00
2018-01-15T18:32:44.126Z,94.00
2018-01-15T18:35:11.618Z,94.00
2018-01-15T18:37:39.086Z,94.10
2018-01-15T18:40:06.728Z,94.10
2018-01-15T18:42:34.982Z,94.10
2018-01-15T18:45:02.457Z,94.10
2018-01-15T18:47:29.935Z,93.90
2018-01-15T18:49:57.388Z,94.00
2018-01-15T18:52:25.121Z,93.80
2018-01-15T18:54:53.499Z,93.70
2018-01-15T18:57:21.781Z,93.30
2018-01-15T18:59:50.019Z,93.60
2018-01-15T19:02:17.554Z,93.60
2018-01-15T19:04:45.002Z,93.60
2018-01-15T19:07:12.499Z,93.70
2018-01-15T19:09:39.977Z,93.90
2018-01-15T19:12:08.226Z,93.80
2018-01-15T19:14:35.841Z,93.80
2018-01-15T19:17:03.335Z,93.30
2018-01-15T19:19:30.915Z,93.50
2018-01-15T19:21:59.156Z,94.00
2018-01-15T19:24:26.621Z,93.70
2018-01-15T19:26:55.059Z,93.40
2018-01-15T19:29:22.534Z,93.40
2018-01-15T19:31:50.018Z,93.50
2018-01-15T19:34:17.578Z,93.70
2018-01-15T19:36:57.985Z,93.50
2018-01-15T19:39:25.467Z,93.50
2018-01-15T19:41:55.079Z,93.00
2018-01-15T19:44:29.568Z,93.50
2018-01-15T19:47:02.793Z,93.70
2018-01-15T19:49:36.082Z,93.50
2018-01-15T19:52:09.307Z,93.00
2018-01-15T19:54:43.127Z,93.60
2018-01-15T19:57:17.313Z,93.60
2018-01-15T19:59:50.729Z,93.60
2018-01-15T20:02:24.814Z,93.30
2018-01-15T20:07:58.880Z,93.30
2018-01-15T20:10:32.002Z,93.60
2018-01-15T20:12:59.485Z,93.50
2018-01-15T20:15:26.976Z,93.50
2018-01-15T20:17:55.201Z,93.50
2018-01-15T20:20:22.676Z,93.50
2018-01-15T20:22:50.401Z,93.40
2018-01-15T20:25:17.883Z,93.40
2018-01-15T20:27:45.605Z,93.50
2018-01-15T20:30:13.123Z,93.40
2018-01-15T20:32:40.603Z,93.40
2018-01-15T20:35:08.293Z,93.30
2018-01-15T20:37:35.777Z,93.20
2018-01-15T20:40:03.268Z,93.20
2018-01-15T20:42:30.812Z,93.20
2018-01-15T20:44:59.039Z,93.60
2018-01-15T20:47:26.553Z,93.60
2018-01-15T20:49:54.780Z,93.40
2018-01-15T20:52:22.254Z,93.40
2018-01-15T20:54:49.735Z,93.60
2018-01-15T20:57:17.214Z,93.70
2018-01-15T20:59:44.720Z,93.50
2018-01-15T21:02:12.192Z,93.70
2018-01-15T21:04:40.720Z,93.70
2018-01-15T21:07:08.178Z,93.70
2018-01-15T21:09:35.681Z,94.00
2018-01-15T21:12:03.916Z,94.20
2018-01-15T21:14:31.400Z,94.20
2018-01-15T21:16:58.914Z,94.20
2018-01-15T21:19:26.384Z,94.30
2018-01-15T21:21:53.914Z,94.30
2018-01-15T21:24:21.382Z,94.40
2018-01-15T21:26:48.840Z,94.30
2018-01-15T21:29:16.316Z,94.30
2018-01-15T21:31:43.807Z,94.20
2018-01-15T21:34:12.034Z,94.10
2018-01-15T21:36:39.529Z,94.00
2018-01-15T21:39:07.001Z,94.10
2018-01-15T21:41:34.494Z,94.20
2018-01-15T21:44:01.975Z,94.00
2018-01-15T21:46:29.471Z,93.90
2018-01-15T21:48:57.719Z,94.20
2018-01-15T21:51:25.196Z,94.20
2018-01-15T21:53:53.841Z,94.30
2018-01-15T21:56:21.705Z,94.30
2018-01-15T21:58:49.496Z,94.40
2018-01-15T22:01:16.973Z,94.40
2018-01-15T22:03:44.504Z,94.50
2018-01-15T22:06:12.742Z,94.40
2018-01-15T22:08:40.282Z,94.30
2018-01-15T22:11:07.740Z,94.40
2018-01-15T22:13:35.249Z,94.40
2018-01-15T22:16:03.488Z,94.10
2018-01-15T22:18:30.966Z,94.10
2018-01-15T22:20:58.429Z,94.20
2018-01-15T22:23:26.862Z,94.20
2018-01-15T22:25:54.322Z,94.60
2018-01-15T22:28:21.826Z,94.40
2018-01-15T22:30:49.398Z,94.50
2018-01-15T22:33:16.922Z,94.50
2018-01-15T22:35:44.387Z,94.40
2018-01-15T22:38:11.867Z,94.30
2018-01-15T22:40:40.142Z,94.30
2018-01-15T22:43:08.367Z,94.40
2018-01-15T22:45:35.898Z,94.40
2018-01-15T22:48:03.494Z,94.40
2018-01-15T22:50:30.951Z,94.50
2018-01-15T22:52:58.413Z,94.60
2018-01-15T22:55:26.655Z,95.00
2018-01-15T22:57:54.134Z,95.00
2018-01-15T23:00:21.638Z,95.00
2018-01-15T23:02:49.214Z,95.30
2018-01-15T23:05:16.797Z,95.70
2018-01-15T23:07:44.272Z,96.20
2018-01-15T23:10:12.575Z,96.50
2018-01-15T23:12:40.873Z,96.40
2018-01-15T23:15:08.335Z,96.40
2018-01-15T23:17:35.818Z,96.30
2018-01-15T23:20:03.290Z,96.20
2018-01-15T23:22:30.786Z,96.00
2018-01-15T23:24:58.294Z,96.00
2018-01-15T23:27:25.802Z,95.90
2018-01-15T23:29:53.268Z,95.80
2018-01-15T23:32:20.742Z,95.80
2018-01-15T23:34:48.316Z,95.70
2018-01-15T23:37:15.800Z,95.70
2018-01-15T23:39:43.266Z,95.60
2018-01-15T23:42:11.507Z,95.60
2018-01-15T23:44:38.980Z,95.50
2018-01-15T23:47:06.454Z,95.80
2018-01-15T23:49:34.726Z,95.00
2018-01-15T23:52:02.961Z,94.90
2018-01-15T23:54:33.408Z,94.90
2018-01-15T23:57:00.893Z,94.90
2018-01-15T23:59:29.149Z,94.90
